Time;durP1;ratioP1;P1;durP2;ratioP2;P2;SDS_P1;SDS_P2;PMS_P1;PMS_P2;Temp;Humidity;BMP_temperature;BMP_pressure;BME280_temperature;BME280_humidity;BME280_pressure;Samples;Min_cycle;Max_cycle;Signal;HPM_P1;HPM_P2
2021/06/01 00:00:34;;;;;;;0.20;0.20;;;16.60;52.00;;;;;;5036552;28;20565;-75
2021/06/01 00:03:00;;;;;;;0.20;0.20;;;16.60;52.10;;;;;;5036573;28;20028;-76
2021/06/01 00:05:25;;;;;;;0.15;0.15;;;16.60;52.10;;;;;;5036346;28;20017;-76
2021/06/01 00:07:51;;;;;;;0.28;0.10;;;16.50;52.10;;;;;;5035991;28;20063;-76
2021/06/01 00:10:16;;;;;;;0.30;0.30;;;16.50;52.20;;;;;;5036396;28;20029;-76
2021/06/01 00:12:42;;;;;;;0.10;0.10;;;16.40;52.20;;;;;;5036295;28;20021;-77
2021/06/01 00:15:09;;;;;;;0.30;0.30;;;16.40;52.20;;;;;;5035980;28;20071;-76
2021/06/01 00:17:35;;;;;;;0.30;0.30;;;16.40;52.20;;;;;;5036235;28;20101;-76
2021/06/01 00:20:01;;;;;;;0.20;0.20;;;16.40;52.20;;;;;;5035670;28;20109;-77
2021/06/01 00:22:27;;;;;;;0.22;0.22;;;16.40;52.20;;;;;;5035535;28;20101;-75
2021/06/01 00:24:52;;;;;;;0.35;0.30;;;16.40;52.20;;;;;;5036539;28;20454;-76
2021/06/01 00:27:18;;;;;;;0.28;0.25;;;16.40;52.20;;;;;;5018317;28;20026;-75
2021/06/01 00:29:43;;;;;;;0.20;0.20;;;16.40;52.20;;;;;;5036173;28;20021;-75
2021/06/01 00:32:09;;;;;;;0.25;0.25;;;16.40;52.20;;;;;;5035863;28;20028;-76
2021/06/01 00:34:34;;;;;;;0.30;0.30;;;16.30;52.20;;;;;;5036012;28;20037;-75
2021/06/01 00:37:00;;;;;;;0.40;0.40;;;16.30;52.30;;;;;;5017533;28;20021;-75
2021/06/01 00:39:25;;;;;;;0.20;0.20;;;16.30;52.30;;;;;;5018007;28;20024;-76
2021/06/01 00:41:51;;;;;;;0.10;0.10;;;16.30;52.20;;;;;;5035740;28;20025;-76
2021/06/01 00:44:16;;;;;;;0.13;0.13;;;16.30;52.30;;;;;;5035810;28;20026;-75
2021/06/01 00:46:42;;;;;;;0.38;0.38;;;16.30;52.30;;;;;;5035254;28;20105;-76
2021/06/01 00:49:07;;;;;;;0.30;0.30;;;16.30;52.30;;;;;;5034750;28;20092;-76
2021/06/01 00:51:33;;;;;;;0.80;0.50;;;16.30;52.30;;;;;;5017308;28;20113;-77
2021/06/01 00:54:01;;;;;;;0.20;0.20;;;16.30;52.30;;;;;;5035635;28;20029;-75
2021/06/01 00:56:27;;;;;;;0.80;0.20;;;16.30;52.40;;;;;;5017914;28;20052;-75
2021/06/01 00:58:52;;;;;;;0.20;0.20;;;16.20;52.40;;;;;;5035151;28;20060;-75
2021/06/01 01:01:20;;;;;;;0.20;0.20;;;16.20;52.50;;;;;;5034930;28;20029;-77
2021/06/01 01:03:48;;;;;;;0.30;0.30;;;16.20;52.50;;;;;;5017437;28;20023;-76
2021/06/01 01:06:43;;;;;;;0.13;0.13;;;16.20;52.60;;;;;;5034789;28;20367;-77
2021/06/01 01:09:15;;;;;;;0.35;0.35;;;16.10;52.50;;;;;;5035273;28;20053;-76
2021/06/01 01:11:57;;;;;;;0.45;0.45;;;16.10;52.70;;;;;;5034923;28;20076;-76
2021/06/01 01:14:27;;;;;;;0.45;0.45;;;16.00;52.70;;;;;;5035111;28;20021;-76
2021/06/01 01:17:18;;;;;;;0.30;0.30;;;16.00;52.70;;;;;;5034897;28;20076;-76
2021/06/01 01:20:07;;;;;;;0.25;0.25;;;16.00;52.80;;;;;;5034601;28;20025;-77
2021/06/01 01:22:39;;;;;;;0.38;0.38;;;15.90;52.70;;;;;;5035048;28;20063;-76
2021/06/01 01:25:07;;;;;;;0.10;0.10;;;15.90;52.80;;;;;;5034732;28;20029;-75
2021/06/01 01:27:42;;;;;;;0.30;0.30;;;15.90;52.90;;;;;;5034883;28;20025;-75
2021/06/01 01:30:11;;;;;;;0.32;0.32;;;15.80;52.90;;;;;;5034916;28;20112;-75
2021/06/01 01:32:50;;;;;;;0.38;0.30;;;15.80;52.90;;;;;;5034574;28;20036;-75
2021/06/01 01:35:17;;;;;;;0.20;0.20;;;15.80;53.00;;;;;;5034288;28;20026;-75
2021/06/01 01:37:44;;;;;;;0.52;0.47;;;15.80;53.00;;;;;;5034544;28;20392;-75
2021/06/01 01:40:10;;;;;;;0.25;0.25;;;15.70;53.00;;;;;;5034487;28;20120;-75
2021/06/01 01:42:45;;;;;;;0.32;0.32;;;15.70;53.10;;;;;;5034191;28;20025;-74
2021/06/01 01:45:19;;;;;;;0.40;0.30;;;15.70;53.70;;;;;;5034370;28;20031;-75
2021/06/01 01:50:41;;;;;;;0.20;0.20;;;15.60;53.30;;;;;;5034431;28;20043;-75
2021/06/01 01:53:12;;;;;;;0.55;0.40;;;15.60;53.40;;;;;;5034099;28;20048;-75
2021/06/01 01:55:38;;;;;;;0.30;0.30;;;15.50;53.30;;;;;;5034316;28;20470;-76
2021/06/01 01:58:03;;;;;;;0.40;0.40;;;15.50;53.30;;;;;;5034533;28;20469;-76
2021/06/01 02:00:31;;;;;;;0.20;0.20;;;15.50;53.40;;;;;;5033561;28;20060;-76
2021/06/01 02:02:57;;;;;;;0.30;0.30;;;15.40;53.40;;;;;;5033672;28;20382;-76
2021/06/01 02:05:24;;;;;;;0.20;0.20;;;15.40;53.50;;;;;;5033770;28;20026;-76
2021/06/01 02:07:50;;;;;;;0.85;0.30;;;15.40;53.50;;;;;;5034112;28;20022;-77
2021/06/01 02:10:16;;;;;;;0.28;0.28;;;15.40;53.50;;;;;;5016634;28;20021;-77
2021/06/01 02:12:42;;;;;;;0.20;0.20;;;15.40;53.60;;;;;;5033909;28;20040;-76
2021/06/01 02:15:09;;;;;;;0.22;0.20;;;15.30;53.60;;;;;;5015689;28;20045;-76
2021/06/01 02:17:35;;;;;;;0.35;0.30;;;15.30;53.60;;;;;;5015505;28;20010;-76
2021/06/01 02:20:01;;;;;;;0.28;0.28;;;15.20;53.70;;;;;;5033449;28;20121;-76
2021/06/01 02:25:39;;;;;;;0.30;0.30;;;15.20;53.80;;;;;;5033662;28;20048;-75
2021/06/01 02:28:27;;;;;;;0.20;0.20;;;15.10;53.80;;;;;;5033534;28;20017;-75
2021/06/01 02:30:58;;;;;;;0.40;0.40;;;15.10;53.80;;;;;;5033662;28;20022;-75
2021/06/01 02:33:27;;;;;;;0.35;0.35;;;15.10;54.00;;;;;;5032982;28;20382;-76
2021/06/01 02:35:53;;;;;;;0.35;0.32;;;15.00;54.00;;;;;;5033597;28;20017;-75
2021/06/01 02:38:19;;;;;;;0.30;0.30;;;15.00;54.10;;;;;;5033466;28;20497;-75
2021/06/01 02:40:47;;;;;;;0.65;0.60;;;15.00;54.70;;;;;;5015451;28;20041;-75
2021/06/01 02:43:14;;;;;;;0.25;0.25;;;14.90;54.10;;;;;;5033295;28;20026;-76
2021/06/01 02:45:44;;;;;;;0.60;0.40;;;14.90;54.10;;;;;;5033481;28;20180;-76
2021/06/01 02:48:12;;;;;;;0.50;0.50;;;14.90;54.20;;;;;;5032912;28;20117;-76
2021/06/01 02:50:40;;;;;;;0.30;0.30;;;14.90;54.20;;;;;;5033452;28;20025;-75
2021/06/01 02:53:07;;;;;;;0.47;0.47;;;14.90;54.20;;;;;;5033494;28;20017;-75
2021/06/01 02:55:33;;;;;;;0.30;0.30;;;14.80;54.30;;;;;;5033198;28;20044;-76
2021/06/01 02:57:59;;;;;;;0.10;0.10;;;14.80;54.30;;;;;;5033801;28;20022;-76
2021/06/01 03:00:26;;;;;;;0.52;0.50;;;14.80;54.40;;;;;;5032660;28;20029;-75
2021/06/01 03:02:53;;;;;;;0.40;0.40;;;14.80;54.50;;;;;;5033250;28;20026;-76
2021/06/01 03:05:19;;;;;;;0.45;0.45;;;14.80;54.50;;;;;;5032972;28;20060;-76
2021/06/01 03:07:53;;;;;;;0.30;0.30;;;14.80;54.50;;;;;;5033722;28;20076;-76
2021/06/01 03:10:19;;;;;;;0.40;0.40;;;14.80;54.50;;;;;;5033286;28;20057;-76
2021/06/01 03:12:53;;;;;;;0.30;0.30;;;14.80;54.60;;;;;;5019210;28;20382;-76
2021/06/01 03:15:21;;;;;;;0.57;0.30;;;14.70;54.50;;;;;;5036624;28;20363;-76
2021/06/01 03:17:47;;;;;;;0.38;0.38;;;14.70;54.60;;;;;;5037412;28;20063;-76
2021/06/01 03:20:13;;;;;;;0.30;0.30;;;14.70;54.60;;;;;;5037279;28;20033;-76
2021/06/01 03:22:38;;;;;;;0.70;0.35;;;14.60;54.60;;;;;;5019284;28;20032;-77
2021/06/01 03:25:04;;;;;;;0.28;0.28;;;14.60;54.80;;;;;;5037213;28;20029;-75
2021/06/01 03:27:30;;;;;;;0.30;0.22;;;14.60;54.80;;;;;;5019340;28;20064;-76
2021/06/01 03:29:56;;;;;;;0.40;0.40;;;14.50;54.90;;;;;;5036586;28;20049;-76
2021/06/01 03:32:21;;;;;;;0.43;0.43;;;14.50;54.90;;;;;;5037116;28;20100;-77
2021/06/01 03:34:47;;;;;;;0.32;0.32;;;14.50;55.00;;;;;;5036922;28;20500;-77
2021/06/01 03:37:13;;;;;;;0.40;0.40;;;14.50;55.10;;;;;;5036675;28;20117;-76
2021/06/01 03:39:38;;;;;;;0.35;0.30;;;14.50;55.10;;;;;;5019256;28;20043;-76
2021/06/01 03:42:06;;;;;;;0.98;0.43;;;14.50;55.20;;;;;;5036796;28;20017;-75
2021/06/01 03:44:31;;;;;;;0.30;0.30;;;14.40;55.20;;;;;;5036513;28;20036;-75
2021/06/01 03:46:57;;;;;;;0.68;0.50;;;14.40;55.30;;;;;;5036943;28;20025;-76
2021/06/01 03:49:22;;;;;;;0.65;0.50;;;14.40;55.30;;;;;;5036776;28;20060;-75
2021/06/01 03:51:48;;;;;;;0.50;0.50;;;14.40;55.30;;;;;;5036958;28;20143;-75
2021/06/01 03:54:13;;;;;;;0.43;0.43;;;14.40;55.30;;;;;;5019148;28;20026;-75
2021/06/01 03:56:39;;;;;;;0.30;0.30;;;14.40;55.30;;;;;;5036660;28;20083;-75
2021/06/01 03:59:05;;;;;;;0.30;0.30;;;14.40;55.30;;;;;;5036231;28;20028;-75
2021/06/01 04:01:31;;;;;;;0.40;0.40;;;14.40;55.40;;;;;;5036943;28;20114;-75
2021/06/01 04:03:56;;;;;;;0.40;0.40;;;14.40;55.40;;;;;;5035950;28;20026;-76
2021/06/01 04:06:22;;;;;;;0.57;0.43;;;14.40;55.50;;;;;;5036704;28;20034;-75
2021/06/01 04:08:48;;;;;;;0.43;0.43;;;14.40;55.60;;;;;;5036880;28;20105;-76
2021/06/01 04:11:13;;;;;;;0.30;0.30;;;14.40;55.60;;;;;;5036634;28;20024;-76
2021/06/01 04:13:39;;;;;;;0.60;0.60;;;14.40;55.70;;;;;;5036081;28;20095;-76
2021/06/01 04:16:04;;;;;;;0.50;0.50;;;14.40;55.70;;;;;;5036651;28;20076;-75
2021/06/01 04:18:30;;;;;;;0.45;0.45;;;14.40;55.70;;;;;;5036551;28;20034;-75
2021/06/01 04:20:56;;;;;;;0.35;0.35;;;14.40;55.80;;;;;;5036253;28;20124;-76
2021/06/01 04:23:22;;;;;;;0.45;0.38;;;14.40;56.10;;;;;;5035014;28;20075;-76
2021/06/01 04:25:48;;;;;;;0.25;0.20;;;14.40;55.80;;;;;;5036354;28;20029;-77
2021/06/01 04:28:13;;;;;;;0.47;0.47;;;14.40;55.80;;;;;;5018173;28;20081;-76
2021/06/01 04:30:43;;;;;;;0.40;0.40;;;14.50;55.90;;;;;;5035538;28;20492;-75
2021/06/01 04:33:10;;;;;;;0.30;0.30;;;14.50;55.90;;;;;;5036303;28;20013;-76
2021/06/01 04:35:36;;;;;;;0.38;0.38;;;14.50;55.90;;;;;;5036397;28;20425;-76
2021/06/01 04:38:01;;;;;;;0.45;0.45;;;14.50;56.00;;;;;;5036057;28;20470;-75
2021/06/01 04:40:27;;;;;;;0.30;0.30;;;14.50;55.90;;;;;;5036020;28;20509;-75
2021/06/01 04:42:53;;;;;;;0.60;0.60;;;14.50;56.00;;;;;;5035807;28;20018;-75
2021/06/01 04:45:18;;;;;;;0.40;0.40;;;14.50;56.00;;;;;;5036007;28;20433;-75
2021/06/01 04:47:44;;;;;;;0.63;0.55;;;14.50;55.90;;;;;;5018451;28;20071;-75
2021/06/01 04:50:11;;;;;;;0.57;0.57;;;14.60;56.10;;;;;;5035728;28;20025;-75
2021/06/01 04:52:36;;;;;;;0.40;0.40;;;14.60;56.10;;;;;;5035789;28;20025;-75
2021/06/01 04:55:03;;;;;;;0.40;0.40;;;14.60;56.20;;;;;;5035710;28;20396;-75
2021/06/01 04:57:28;;;;;;;0.30;0.30;;;14.60;56.20;;;;;;5035608;28;20017;-75
2021/06/01 04:59:54;;;;;;;0.60;0.60;;;14.60;56.20;;;;;;5034943;28;20033;-75
2021/06/01 05:02:19;;;;;;;0.52;0.52;;;14.60;56.20;;;;;;5035939;28;20026;-76
2021/06/01 05:04:45;;;;;;;0.32;0.32;;;14.60;56.10;;;;;;5017456;28;20026;-76
2021/06/01 05:07:12;;;;;;;0.50;0.50;;;14.70;56.20;;;;;;5035265;28;20057;-76
2021/06/01 05:09:38;;;;;;;0.60;0.60;;;14.70;56.30;;;;;;5035405;28;20085;-75
2021/06/01 05:12:04;;;;;;;0.40;0.40;;;14.70;56.30;;;;;;5016768;28;20099;-75
2021/06/01 05:14:30;;;;;;;0.47;0.47;;;14.70;56.30;;;;;;5035149;28;20478;-75
2021/06/01 05:16:55;;;;;;;0.57;0.57;;;14.70;56.30;;;;;;5035170;28;20072;-76
2021/06/01 05:19:21;;;;;;;0.47;0.45;;;14.80;56.40;;;;;;5035045;28;20017;-76
2021/06/01 05:21:46;;;;;;;0.57;0.45;;;14.80;56.40;;;;;;5017663;28;20038;-76
2021/06/01 05:24:12;;;;;;;0.88;0.70;;;14.90;56.40;;;;;;5034841;28;20036;-75
2021/06/01 05:26:39;;;;;;;0.40;0.40;;;14.90;56.40;;;;;;5034029;28;20033;-76
2021/06/01 05:29:04;;;;;;;0.43;0.43;;;15.00;56.40;;;;;;5035222;28;20087;-76
2021/06/01 05:34:05;;;;;;;1.35;0.50;;;15.10;56.30;;;;;;5035383;28;20049;-76
2021/06/01 05:36:31;;;;;;;0.60;0.60;;;15.20;56.20;;;;;;5035345;28;20450;-76
2021/06/01 05:38:56;;;;;;;1.10;0.65;;;15.30;56.20;;;;;;5035218;28;20029;-76
2021/06/01 05:41:22;;;;;;;0.55;0.55;;;15.30;56.20;;;;;;5034534;28;20033;-75
2021/06/01 05:43:47;;;;;;;0.50;0.50;;;15.40;56.30;;;;;;5017230;28;20021;-76
2021/06/01 05:46:13;;;;;;;0.50;0.50;;;15.50;56.20;;;;;;5034937;28;20048;-77
2021/06/01 05:48:39;;;;;;;0.43;0.43;;;15.60;56.20;;;;;;5034554;28;20064;-76
2021/06/01 05:51:05;;;;;;;0.70;0.70;;;15.70;56.10;;;;;;5034738;28;20022;-76
2021/06/01 05:53:31;;;;;;;0.60;0.40;;;15.70;56.00;;;;;;5034918;28;20422;-76
2021/06/01 05:55:57;;;;;;;0.88;0.82;;;15.80;56.00;;;;;;5033417;28;20060;-75
2021/06/01 05:58:23;;;;;;;1.27;0.88;;;15.90;56.00;;;;;;5034790;28;20018;-75
2021/06/01 06:00:49;;;;;;;0.40;0.40;;;16.00;56.00;;;;;;5034704;28;20549;-74
2021/06/01 06:03:16;;;;;;;0.43;0.43;;;16.10;56.10;;;;;;5034870;28;20045;-76
2021/06/01 06:05:42;;;;;;;0.80;0.80;;;16.10;56.10;;;;;;5034186;28;20036;-75
2021/06/01 06:08:13;;;;;;;0.40;0.40;;;16.20;56.00;;;;;;5034180;28;20094;-75
2021/06/01 06:10:39;;;;;;;0.70;0.52;;;16.30;56.00;;;;;;5033476;28;20025;-75
2021/06/01 06:13:06;;;;;;;0.40;0.40;;;16.40;55.90;;;;;;5034365;28;20029;-75
2021/06/01 06:15:32;;;;;;;0.40;0.40;;;16.50;55.80;;;;;;5033773;28;20397;-74
2021/06/01 06:18:02;;;;;;;0.50;0.50;;;16.60;55.70;;;;;;5034043;28;20127;-75
2021/06/01 06:20:28;;;;;;;0.50;0.50;;;16.70;55.70;;;;;;5034076;28;20034;-76
2021/06/01 06:22:54;;;;;;;0.43;0.43;;;16.80;55.70;;;;;;5034118;28;20013;-76
2021/06/01 06:25:20;;;;;;;0.50;0.50;;;16.90;55.60;;;;;;5033232;28;20451;-77
2021/06/01 06:27:45;;;;;;;0.73;0.73;;;16.90;55.60;;;;;;5034131;28;20032;-79
2021/06/01 06:30:11;;;;;;;0.40;0.40;;;17.00;55.70;;;;;;5034308;28;20429;-78
2021/06/01 06:32:37;;;;;;;0.47;0.40;;;17.00;55.70;;;;;;5033825;28;20022;-78
2021/06/01 06:35:05;;;;;;;0.60;0.60;;;17.10;55.70;;;;;;5034260;28;20021;-77
2021/06/01 06:37:31;;;;;;;0.70;0.63;;;17.20;55.60;;;;;;5016058;28;20482;-77
2021/06/01 06:39:57;;;;;;;0.35;0.35;;;17.30;55.60;;;;;;5033180;28;20041;-77
2021/06/01 06:42:22;;;;;;;0.70;0.63;;;17.30;55.50;;;;;;5033654;28;20538;-77
2021/06/01 06:44:51;;;;;;;0.70;0.65;;;17.40;55.50;;;;;;5033698;28;20048;-77
2021/06/01 06:49:44;;;;;;;0.50;0.50;;;17.60;55.60;;;;;;5033960;28;20025;-77
2021/06/01 06:52:11;;;;;;;0.38;0.38;;;17.60;55.60;;;;;;5033439;28;20025;-76
2021/06/01 06:54:37;;;;;;;0.60;0.50;;;17.70;55.60;;;;;;5014972;28;20123;-75
2021/06/01 06:57:04;;;;;;;0.60;0.60;;;17.70;55.60;;;;;;5033329;28;20025;-76
2021/06/01 06:59:29;;;;;;;0.60;0.60;;;17.80;55.50;;;;;;5033978;28;20037;-77
2021/06/01 07:01:55;;;;;;;0.50;0.47;;;17.90;55.50;;;;;;5033646;28;20022;-76
2021/06/01 07:04:20;;;;;;;1.08;0.75;;;17.90;55.50;;;;;;5033357;28;20413;-80
2021/06/01 07:06:48;;;;;;;0.75;0.63;;;18.00;55.50;;;;;;5015828;28;20529;-78
2021/06/01 07:09:14;;;;;;;0.90;0.80;;;18.00;55.50;;;;;;5033476;28;20026;-76
2021/06/01 07:11:40;;;;;;;0.70;0.70;;;18.10;55.50;;;;;;5015359;28;20478;-77
2021/06/01 07:14:30;;;;;;;0.60;0.60;;;18.10;55.40;;;;;;5033830;28;20100;-78
2021/06/01 07:16:55;;;;;;;0.63;0.63;;;18.20;55.40;;;;;;5033317;28;20128;-76
2021/06/01 07:19:21;;;;;;;0.40;0.40;;;18.30;55.40;;;;;;5033589;28;20061;-77
2021/06/01 07:21:47;;;;;;;0.63;0.60;;;18.30;55.40;;;;;;5032726;28;20053;-77
2021/06/01 07:24:12;;;;;;;0.60;0.60;;;18.40;55.40;;;;;;5033529;28;20037;-78
2021/06/01 07:26:38;;;;;;;0.90;0.88;;;18.50;55.40;;;;;;5032774;28;20516;-77
2021/06/01 07:29:04;;;;;;;0.57;0.50;;;18.50;55.40;;;;;;5033299;28;20101;-76
2021/06/01 07:31:30;;;;;;;0.30;0.30;;;18.60;55.30;;;;;;5015575;28;20072;-77
2021/06/01 07:33:55;;;;;;;1.17;0.63;;;18.70;55.40;;;;;;5015545;28;20381;-78
2021/06/01 07:36:21;;;;;;;0.57;0.57;;;18.70;55.40;;;;;;5032823;28;20037;-77
2021/06/01 07:38:46;;;;;;;0.50;0.50;;;18.80;55.50;;;;;;5033265;28;20022;-76
2021/06/01 07:41:12;;;;;;;0.60;0.60;;;18.80;55.50;;;;;;5033125;28;20042;-77
2021/06/01 07:43:38;;;;;;;0.60;0.60;;;18.90;55.40;;;;;;5015530;28;20061;-77
2021/06/01 07:46:04;;;;;;;0.68;0.68;;;18.90;55.30;;;;;;5033363;28;20064;-76
2021/06/01 07:48:38;;;;;;;1.98;0.80;;;19.00;55.40;;;;;;5033201;28;20032;-77
2021/06/01 07:51:10;;;;;;;1.15;0.80;;;19.00;55.40;;;;;;5033023;28;20040;-77
2021/06/01 07:53:36;;;;;;;0.60;0.60;;;19.00;55.50;;;;;;5015426;28;20037;-74
2021/06/01 07:56:02;;;;;;;0.88;0.68;;;19.10;55.60;;;;;;5032621;28;20021;-76
2021/06/01 07:58:27;;;;;;;0.77;0.60;;;19.20;55.50;;;;;;5034457;28;20510;-76
2021/06/01 08:00:53;;;;;;;1.15;0.90;;;19.20;55.50;;;;;;5036688;28;20116;-75
2021/06/01 08:03:18;;;;;;;0.55;0.55;;;19.30;55.40;;;;;;5036684;28;20029;-75
2021/06/01 08:05:44;;;;;;;1.42;1.02;;;19.40;55.40;;;;;;5036235;28;20112;-77
2021/06/01 08:08:10;;;;;;;0.52;0.52;;;19.50;55.40;;;;;;5036571;28;20022;-77
2021/06/01 08:10:36;;;;;;;1.02;0.70;;;19.50;55.20;;;;;;5036454;28;20528;-75
2021/06/01 08:13:02;;;;;;;0.63;0.60;;;19.60;55.30;;;;;;5036536;28;20104;-76
2021/06/01 08:15:27;;;;;;;0.60;0.60;;;19.70;55.30;;;;;;5036255;28;20049;-75
2021/06/01 08:17:57;;;;;;;0.68;0.60;;;19.70;55.30;;;;;;5018498;28;20022;-76
2021/06/01 08:20:54;;;;;;;0.60;0.60;;;19.80;55.30;;;;;;5035824;28;20393;-74
2021/06/01 08:23:12;;;;;;;0.85;0.85;;;19.80;55.30;;;;;;5034964;28;20030;-77
2021/06/01 08:25:37;;;;;;;1.05;0.68;;;19.90;55.30;;;;;;5018320;28;20026;-75
2021/06/01 08:28:03;;;;;;;0.82;0.80;;;20.00;55.20;;;;;;5035591;28;20099;-76
2021/06/01 08:30:30;;;;;;;1.23;1.15;;;20.10;55.30;;;;;;5036022;28;20422;-76
2021/06/01 08:32:56;;;;;;;0.80;0.80;;;20.20;55.30;;;;;;5018308;28;20109;-77
2021/06/01 08:35:22;;;;;;;0.70;0.70;;;20.30;55.10;;;;;;5035539;28;20108;-76
2021/06/01 08:37:47;;;;;;;0.43;0.40;;;20.40;55.10;;;;;;5035939;28;20025;-75
2021/06/01 08:40:13;;;;;;;0.93;0.88;;;20.40;55.10;;;;;;5036109;28;20482;-76
2021/06/01 08:42:40;;;;;;;0.68;0.68;;;20.50;55.10;;;;;;5035857;28;20024;-77
2021/06/01 08:45:08;;;;;;;0.80;0.80;;;20.60;55.00;;;;;;5035865;28;20026;-76
2021/06/01 08:47:34;;;;;;;0.60;0.52;;;20.70;55.00;;;;;;5035712;28;20063;-77
2021/06/01 08:50:04;;;;;;;1.00;0.52;;;20.80;55.00;;;;;;5017272;28;20386;-75
2021/06/01 08:52:29;;;;;;;0.38;0.38;;;20.80;55.00;;;;;;5036017;28;20013;-76
2021/06/01 08:54:56;;;;;;;0.60;0.60;;;20.90;54.90;;;;;;5035568;28;20523;-75
2021/06/01 08:57:21;;;;;;;0.65;0.65;;;21.00;54.90;;;;;;5034933;28;20033;-77
2021/06/01 08:59:47;;;;;;;0.85;0.70;;;21.00;54.90;;;;;;5035491;28;20394;-77
2021/06/01 09:02:19;;;;;;;0.50;0.50;;;21.00;55.00;;;;;;5017988;28;20044;-77
2021/06/01 09:05:03;;;;;;;0.63;0.63;;;21.20;55.00;;;;;;5035486;28;20022;-75
2021/06/01 09:10:10;;;;;;;0.73;0.67;;;21.40;54.80;;;;;;5034550;28;20033;-76
2021/06/01 09:12:57;;;;;;;0.88;0.88;;;21.50;54.60;;;;;;5017361;28;20030;-76
2021/06/01 09:23:04;;;;;;;0.63;0.63;;;21.70;54.70;;;;;;5035708;28;20049;-76
2021/06/01 09:28:01;;;;;;;1.10;1.00;;;21.90;54.50;;;;;;5034789;28;20033;-76
2021/06/01 09:30:46;;;;;;;0.80;0.80;;;21.90;54.50;;;;;;5016815;28;20492;-76
2021/06/01 09:33:17;;;;;;;0.70;0.70;;;22.00;54.50;;;;;;5034130;28;20047;-75
2021/06/01 09:35:49;;;;;;;0.80;0.70;;;22.10;54.30;;;;;;5035098;28;20017;-77
2021/06/01 09:38:16;;;;;;;1.10;1.00;;;22.20;54.20;;;;;;5017096;28;20038;-76
2021/06/01 09:40:43;;;;;;;0.80;0.73;;;22.30;54.20;;;;;;5034409;28;20033;-78
2021/06/01 09:43:17;;;;;;;0.75;0.57;;;22.40;54.00;;;;;;5034515;28;20043;-78
2021/06/01 09:45:44;;;;;;;0.50;0.47;;;22.50;54.00;;;;;;5034532;28;20378;-78
2021/06/01 09:48:12;;;;;;;0.40;0.40;;;22.50;53.90;;;;;;5033687;28;20103;-76
2021/06/01 09:53:32;;;;;;;0.38;0.38;;;22.70;54.00;;;;;;5034278;28;20033;-78
2021/06/01 09:55:58;;;;;;;0.70;0.70;;;22.80;53.80;;;;;;5034480;28;20049;-76
2021/06/01 09:58:23;;;;;;;0.40;0.40;;;22.80;53.80;;;;;;5034380;28;20053;-77
2021/06/01 10:00:49;;;;;;;0.77;0.77;;;22.90;53.70;;;;;;5033736;28;20382;-81
2021/06/01 10:03:18;;;;;;;0.73;0.43;;;23.00;53.50;;;;;;5034275;28;20054;-81
2021/06/01 10:05:45;;;;;;;0.70;0.43;;;23.10;53.50;;;;;;5034411;28;20063;-80
2021/06/01 10:08:18;;;;;;;0.77;0.65;;;23.10;53.40;;;;;;5034447;28;20063;-79
2021/06/01 10:10:53;;;;;;;0.68;0.65;;;23.30;53.30;;;;;;5034097;28;20100;-81
2021/06/01 10:13:20;;;;;;;0.50;0.47;;;23.30;53.10;;;;;;5034360;28;20552;-79
2021/06/01 10:15:48;;;;;;;0.60;0.60;;;23.40;53.00;;;;;;5033538;28;20057;-81
2021/06/01 10:18:16;;;;;;;0.38;0.38;;;23.40;52.90;;;;;;5034215;28;20025;-80
2021/06/01 10:20:44;;;;;;;0.43;0.43;;;23.40;52.80;;;;;;5033094;28;20371;-80
2021/06/01 10:23:10;;;;;;;0.60;0.50;;;23.50;52.90;;;;;;5016589;28;20022;-79
2021/06/01 10:25:36;;;;;;;0.50;0.50;;;23.60;52.90;;;;;;5033559;28;20637;-75
2021/06/01 10:28:04;;;;;;;0.45;0.45;;;23.60;52.70;;;;;;5033793;28;20018;-75
2021/06/01 10:30:35;;;;;;;0.63;0.30;;;23.70;52.60;;;;;;5033055;28;20033;-75
2021/06/01 10:33:04;;;;;;;0.50;0.50;;;23.70;52.50;;;;;;5016000;28;20114;-76
2021/06/01 10:35:37;;;;;;;0.50;0.50;;;23.80;52.40;;;;;;5033629;28;20017;-75
2021/06/01 10:44:19;;;;;;;1.00;0.47;;;24.10;52.10;;;;;;5034007;28;20032;-77
2021/06/01 10:52:08;;;;;;;0.57;0.50;;;24.30;51.60;;;;;;5033649;28;20383;-76
2021/06/01 10:57:07;;;;;;;0.47;0.38;;;24.40;51.40;;;;;;5033851;28;20029;-76
2021/06/01 11:02:27;;;;;;;0.60;0.60;;;24.50;51.00;;;;;;5033822;28;20037;-77
2021/06/01 11:04:58;;;;;;;0.68;0.50;;;24.40;51.00;;;;;;5033490;28;20416;-78
2021/06/01 11:07:27;;;;;;;0.50;0.50;;;24.50;50.80;;;;;;5033697;28;20420;-78
2021/06/01 11:09:53;;;;;;;0.73;0.73;;;24.60;50.70;;;;;;5033754;28;20021;-79
2021/06/01 11:12:21;;;;;;;0.60;0.60;;;24.80;50.40;;;;;;5033578;28;20373;-76
2021/06/01 11:14:48;;;;;;;0.73;0.73;;;24.80;50.30;;;;;;5033035;28;20108;-76
2021/06/01 11:17:30;;;;;;;0.45;0.45;;;24.90;50.30;;;;;;5033208;28;20049;-77
2021/06/01 11:20:00;;;;;;;0.40;0.40;;;25.10;50.00;;;;;;5033481;28;20021;-76
2021/06/01 11:22:45;;;;;;;0.50;0.50;;;25.80;49.50;;;;;;5033518;28;20381;-78
2021/06/01 11:33:32;;;;;;;0.40;0.40;;;28.80;46.40;;;;;;5036712;28;20099;-76
2021/06/01 11:36:03;;;;;;;0.35;0.35;;;29.10;46.10;;;;;;5036758;28;20013;-76
2021/06/01 11:38:41;;;;;;;0.57;0.57;;;29.40;45.80;;;;;;5036612;28;20029;-75
2021/06/01 11:43:37;;;;;;;0.22;0.22;;;29.90;45.50;;;;;;5037027;28;20053;-75
2021/06/01 11:46:23;;;;;;;0.40;0.40;;;30.10;45.40;;;;;;5036449;28;20025;-76
2021/06/01 11:51:24;;;;;;;0.32;0.32;;;30.60;45.00;;;;;;5036873;28;20040;-77
2021/06/01 11:54:13;;;;;;;0.60;0.55;;;30.40;44.80;;;;;;5018385;28;20117;-75
2021/06/01 12:02:22;;;;;;;0.30;0.30;;;29.90;45.60;;;;;;5037015;28;20061;-75
2021/06/01 12:05:01;;;;;;;0.30;0.30;;;29.90;45.70;;;;;;5036150;28;20387;-74
2021/06/01 12:13:16;;;;;;;0.60;0.30;;;29.70;45.60;;;;;;5035934;28;20500;-74
2021/06/01 12:20:55;;;;;;;0.30;0.30;;;29.70;45.50;;;;;;5036102;28;20041;-75
2021/06/01 12:23:44;;;;;;;0.40;0.40;;;29.70;45.40;;;;;;5017863;28;20036;-76
2021/06/01 12:32:11;;;;;;;0.28;0.28;;;30.00;45.30;;;;;;5035898;28;20036;-75
2021/06/01 12:43:08;;;;;;;0.25;0.20;;;30.20;44.90;;;;;;5035727;28;20442;-75
2021/06/01 13:07:50;;;;;;;0.20;0.20;;;31.30;43.50;;;;;;5035000;28;20086;-77
2021/06/01 13:13:50;;;;;;;0.57;0.50;;;32.20;42.70;;;;;;5035199;28;20330;-76
2021/06/01 13:21:50;;;;;;;0.60;0.60;;;32.10;43.00;;;;;;5034792;28;20077;-77
2021/06/01 13:32:27;;;;;;;0.40;0.40;;;31.90;42.30;;;;;;5034405;28;20202;-75
2021/06/01 13:40:51;;;;;;;0.60;0.60;;;32.30;41.80;;;;;;5033522;28;20124;-75
2021/06/01 13:46:18;;;;;;;0.55;0.50;;;31.90;41.90;;;;;;5034041;28;20036;-76
2021/06/01 13:56:44;;;;;;;0.40;0.40;;;31.40;41.90;;;;;;5033918;28;20043;-75
2021/06/01 14:10:13;;;;;;;0.30;0.30;;;31.30;41.30;;;;;;5033635;28;20118;-74
2021/06/01 14:15:35;;;;;;;0.32;0.32;;;30.70;41.70;;;;;;5033733;28;20052;-74
2021/06/01 14:29:42;;;;;;;0.32;0.32;;;30.20;41.60;;;;;;5033324;28;20059;-75
2021/06/01 15:32:15;;;;;;;0.50;0.50;;;28.90;41.10;;;;;;5036362;28;20168;-74
2021/06/01 15:48:57;;;;;;;0.55;0.55;;;30.00;40.40;;;;;;5036508;28;20103;-73
2021/06/01 15:54:51;;;;;;;0.28;0.28;;;30.40;40.20;;;;;;5036326;28;20548;-74
2021/06/01 16:13:50;;;;;;;0.45;0.45;;;31.00;40.10;;;;;;4955497;29;20492;-73
2021/06/01 16:21:31;;;;;;;0.57;0.40;;;31.00;40.50;;;;;;4955379;29;20488;-73
2021/06/01 17:05:10;;;;;;;0.30;0.30;;;32.10;43.30;;;;;;5035025;28;20052;-75
2021/06/01 17:13:07;;;;;;;0.38;0.38;;;32.10;43.70;;;;;;5034943;28;20382;-75
2021/06/01 17:15:34;;;;;;;0.22;0.22;;;32.10;43.80;;;;;;5034431;28;20060;-75
2021/06/01 17:18:10;;;;;;;0.43;0.43;;;31.90;43.50;;;;;;5033924;28;20041;-75
2021/06/01 17:23:27;;;;;;;0.63;0.30;;;31.40;43.80;;;;;;5034618;28;20033;-75
2021/06/01 17:36:57;;;;;;;0.20;0.20;;;30.10;43.50;;;;;;5034446;28;20167;-76
2021/06/01 17:39:22;;;;;;;0.20;0.20;;;29.80;43.40;;;;;;5034217;28;20370;-75
2021/06/01 17:41:51;;;;;;;0.20;0.20;;;29.60;43.20;;;;;;5034043;28;20470;-76
2021/06/01 17:44:18;;;;;;;0.20;0.20;;;29.30;43.00;;;;;;5034163;28;20100;-76
2021/06/01 17:46:46;;;;;;;0.20;0.20;;;29.00;43.10;;;;;;5033595;28;20025;-76
2021/06/01 17:49:14;;;;;;;0.50;0.50;;;28.80;42.90;;;;;;5016170;28;20160;-75
2021/06/01 17:51:42;;;;;;;0.30;0.30;;;28.60;43.50;;;;;;5034014;28;20484;-75
2021/06/01 17:54:08;;;;;;;0.67;0.43;;;28.60;42.70;;;;;;5034148;28;20025;-76
2021/06/01 17:56:35;;;;;;;0.40;0.40;;;28.40;42.50;;;;;;5033858;28;20283;-76
2021/06/01 17:59:01;;;;;;;0.22;0.22;;;28.10;42.40;;;;;;5033817;28;20351;-75
2021/06/01 18:01:29;;;;;;;0.30;0.30;;;27.90;42.20;;;;;;5033371;28;20108;-75
2021/06/01 18:04:01;;;;;;;0.47;0.47;;;27.60;42.10;;;;;;5033652;28;20044;-76
2021/06/01 18:06:37;;;;;;;0.68;0.40;;;27.30;42.20;;;;;;5016140;28;20470;-76
2021/06/01 18:09:27;;;;;;;0.40;0.28;;;27.00;42.20;;;;;;5033758;28;20018;-76
2021/06/01 18:42:29;;;;;;;0.25;0.25;;;24.90;42.20;;;;;;5032647;28;20103;-76
2021/06/01 19:25:16;;;;;;;0.40;0.38;;;23.00;43.80;;;;;;5032880;28;20037;-75
2021/06/01 19:51:59;;;;;;;0.50;0.17;;;22.00;44.50;;;;;;5032993;28;20088;-77
2021/06/01 19:54:27;;;;;;;0.30;0.30;;;21.90;44.60;;;;;;5035401;28;20047;-75
2021/06/01 19:56:53;;;;;;;0.20;0.20;;;21.80;44.70;;;;;;5035848;28;20036;-75